VKG121 LEPA-EKCH
Flight info
| Callsign | VKG121 |
|---|---|
| Flight time | N/A |
| Altitude | 34000 |
| Route | MEROS N853 LUMAS DCT MAXIR DCT LUSOL DCT BODRU DCT OKTET DCT IRMAR DCT KINES DCT VANAS DCT ESOKO DCT GODRA DCT LOKTA DCT TEDGO DCT HAREM DCT LOHRE DCT BERXO DCT MAKEL N851 GESKA Z711 MONAK |
| Aircraft | A321/M-SDE3FGHIRWY/LB1 |
Departure
| Time | N/A |
|---|---|
| Airport | Palma de Mallorca Airport (LEPA) |
Arrival
| Time | 2026-04-23 11:52 |
|---|---|
| Airport | Copenhagen Kastrup Airport (EKCH) |
| Time | Latitude | Longitude | Altitude | Speed | Heading |
|---|---|---|---|---|---|
| 2026-04-23 10:42 | 48.55445 | 9.24824 | 35075 ft | 430 kts | 6° |
| 2026-04-23 10:42 | 48.58389 | 9.25325 | 35196 ft | 430 kts | 6° |
| 2026-04-23 10:43 | 48.61363 | 9.25833 | 35317 ft | 430 kts | 7° |
| 2026-04-23 10:43 | 48.64339 | 9.26330 | 35447 ft | 430 kts | 6° |
| 2026-04-23 10:43 | 48.67321 | 9.26795 | 35567 ft | 430 kts | 6° |
| 2026-04-23 10:43 | 48.70300 | 9.27240 | 35687 ft | 430 kts | 6° |
| 2026-04-23 10:44 | 48.73285 | 9.27680 | 35807 ft | 430 kts | 6° |
| 2026-04-23 10:44 | 48.76265 | 9.28119 | 35940 ft | 430 kts | 6° |
| 2026-04-23 10:44 | 48.79237 | 9.28562 | 36060 ft | 430 kts | 6° |
| 2026-04-23 10:44 | 48.82211 | 9.29016 | 36178 ft | 430 kts | 6° |
| 2026-04-23 10:45 | 48.85188 | 9.29478 | 36330 ft | 430 kts | 6° |
| 2026-04-23 10:45 | 48.88168 | 9.29942 | 36382 ft | 430 kts | 6° |
| 2026-04-23 10:45 | 48.94118 | 9.30860 | 36371 ft | 430 kts | 6° |
| 2026-04-23 10:46 | 49.00071 | 9.31776 | 36380 ft | 430 kts | 6° |
| 2026-04-23 10:46 | 49.06024 | 9.32693 | 36372 ft | 430 kts | 6° |
| 2026-04-23 10:47 | 49.11979 | 9.33629 | 36384 ft | 430 kts | 6° |
| 2026-04-23 10:47 | 49.17891 | 9.34553 | 36381 ft | 430 kts | 6° |
| 2026-04-23 10:48 | 49.23882 | 9.35472 | 36383 ft | 430 kts | 6° |
| 2026-04-23 10:48 | 49.29799 | 9.36389 | 36376 ft | 430 kts | 6° |
| 2026-04-23 10:49 | 49.35747 | 9.37330 | 36379 ft | 430 kts | 6° |
| 2026-04-23 10:49 | 49.41702 | 9.38278 | 36372 ft | 430 kts | 6° |
| 2026-04-23 10:50 | 49.47665 | 9.39203 | 36381 ft | 430 kts | 6° |
| 2026-04-23 10:50 | 49.53611 | 9.40130 | 36379 ft | 430 kts | 6° |
| 2026-04-23 10:51 | 49.59573 | 9.41075 | 36387 ft | 430 kts | 6° |
| 2026-04-23 10:51 | 49.65534 | 9.42025 | 36378 ft | 430 kts | 6° |
| 2026-04-23 10:52 | 49.71483 | 9.42975 | 36379 ft | 430 kts | 6° |
| 2026-04-23 10:52 | 49.77434 | 9.43924 | 36375 ft | 429 kts | 6° |
| 2026-04-23 10:53 | 49.83341 | 9.44871 | 36390 ft | 429 kts | 6° |
| 2026-04-23 10:53 | 49.89279 | 9.45830 | 36381 ft | 429 kts | 6° |
| 2026-04-23 10:54 | 49.95215 | 9.46779 | 36371 ft | 429 kts | 6° |
| 2026-04-23 10:54 | 50.01159 | 9.47738 | 36366 ft | 429 kts | 6° |
| 2026-04-23 10:55 | 50.07093 | 9.48780 | 36369 ft | 428 kts | 11° |
| 2026-04-23 10:55 | 50.12918 | 9.50724 | 36366 ft | 428 kts | 12° |
| 2026-04-23 10:56 | 50.18746 | 9.52668 | 36371 ft | 428 kts | 12° |
| 2026-04-23 10:56 | 50.24577 | 9.54622 | 36367 ft | 428 kts | 12° |
| 2026-04-23 10:57 | 50.30402 | 9.56574 | 36373 ft | 428 kts | 12° |
| 2026-04-23 10:57 | 50.36229 | 9.58536 | 36368 ft | 428 kts | 12° |
| 2026-04-23 10:58 | 50.42049 | 9.60504 | 36376 ft | 428 kts | 12° |
| 2026-04-23 10:58 | 50.47828 | 9.62467 | 36370 ft | 428 kts | 12° |
| 2026-04-23 10:59 | 50.53647 | 9.64447 | 36379 ft | 427 kts | 12° |
| 2026-04-23 10:59 | 50.59457 | 9.66422 | 36373 ft | 427 kts | 13° |
| 2026-04-23 11:00 | 50.65270 | 9.68403 | 36382 ft | 427 kts | 13° |
| 2026-04-23 11:00 | 50.71081 | 9.70387 | 36377 ft | 427 kts | 13° |
| 2026-04-23 11:01 | 50.76882 | 9.72373 | 36380 ft | 427 kts | 13° |
| 2026-04-23 11:01 | 50.82691 | 9.74373 | 36373 ft | 427 kts | 13° |
| 2026-04-23 11:02 | 50.88488 | 9.76377 | 36373 ft | 426 kts | 14° |
| 2026-04-23 11:02 | 50.94288 | 9.78382 | 36374 ft | 427 kts | 13° |
| 2026-04-23 11:03 | 51.00082 | 9.80388 | 36361 ft | 426 kts | 13° |
| 2026-04-23 11:03 | 51.05880 | 9.82395 | 36361 ft | 426 kts | 13° |
| 2026-04-23 11:04 | 51.11673 | 9.84408 | 36343 ft | 426 kts | 13° |
| 2026-04-23 11:04 | 51.17461 | 9.86426 | 36348 ft | 426 kts | 13° |
| 2026-04-23 11:05 | 51.23224 | 9.88578 | 36333 ft | 425 kts | 19° |
| 2026-04-23 11:05 | 51.28811 | 9.91665 | 36338 ft | 425 kts | 20° |
| 2026-04-23 11:06 | 51.37189 | 9.96304 | 36335 ft | 424 kts | 20° |
| 2026-04-23 11:07 | 51.42772 | 9.99408 | 36338 ft | 424 kts | 20° |
| 2026-04-23 11:07 | 51.48353 | 10.02507 | 36334 ft | 424 kts | 20° |
| 2026-04-23 11:08 | 51.53930 | 10.05605 | 36342 ft | 424 kts | 20° |
| 2026-04-23 11:08 | 51.59509 | 10.08723 | 36338 ft | 424 kts | 20° |
| 2026-04-23 11:09 | 51.65089 | 10.11858 | 36349 ft | 424 kts | 20° |
| 2026-04-23 11:09 | 51.70649 | 10.14983 | 36342 ft | 424 kts | 20° |
| 2026-04-23 11:10 | 51.76234 | 10.18114 | 36345 ft | 424 kts | 20° |
| 2026-04-23 11:10 | 51.81775 | 10.21239 | 36347 ft | 424 kts | 21° |
| 2026-04-23 11:11 | 51.87344 | 10.24405 | 36346 ft | 424 kts | 21° |
| 2026-04-23 11:11 | 51.92918 | 10.27577 | 36333 ft | 424 kts | 21° |
| 2026-04-23 11:12 | 51.98480 | 10.30739 | 36341 ft | 424 kts | 21° |
| 2026-04-23 11:12 | 52.04043 | 10.33903 | 36334 ft | 423 kts | 21° |
| 2026-04-23 11:13 | 52.09604 | 10.37090 | 36335 ft | 423 kts | 21° |
| 2026-04-23 11:13 | 52.15159 | 10.40274 | 36328 ft | 423 kts | 21° |
| 2026-04-23 11:14 | 52.20712 | 10.43465 | 36329 ft | 423 kts | 21° |
| 2026-04-23 11:14 | 52.26259 | 10.46656 | 36322 ft | 423 kts | 21° |
| 2026-04-23 11:15 | 52.31805 | 10.49863 | 36324 ft | 423 kts | 21° |
| 2026-04-23 11:15 | 52.37348 | 10.53086 | 36318 ft | 423 kts | 21° |
| 2026-04-23 11:16 | 52.42891 | 10.56307 | 36321 ft | 423 kts | 21° |
| 2026-04-23 11:16 | 52.48440 | 10.59534 | 36321 ft | 423 kts | 21° |
| 2026-04-23 11:17 | 52.53980 | 10.62771 | 36328 ft | 423 kts | 21° |
| 2026-04-23 11:17 | 52.59531 | 10.66036 | 36320 ft | 423 kts | 21° |
| 2026-04-23 11:18 | 52.65074 | 10.69297 | 36320 ft | 423 kts | 21° |
| 2026-04-23 11:18 | 52.70619 | 10.72558 | 36308 ft | 423 kts | 21° |
| 2026-04-23 11:19 | 52.76129 | 10.75809 | 36312 ft | 423 kts | 21° |
| 2026-04-23 11:19 | 52.81668 | 10.79099 | 36301 ft | 423 kts | 21° |
| 2026-04-23 11:20 | 52.87217 | 10.82393 | 36307 ft | 423 kts | 21° |
| 2026-04-23 11:20 | 52.92763 | 10.85696 | 36300 ft | 423 kts | 21° |
| 2026-04-23 11:21 | 52.98305 | 10.89015 | 36304 ft | 423 kts | 21° |
| 2026-04-23 11:21 | 53.03846 | 10.92331 | 36297 ft | 423 kts | 21° |
| 2026-04-23 11:22 | 53.09395 | 10.95653 | 36305 ft | 423 kts | 21° |
| 2026-04-23 11:22 | 53.14932 | 10.98988 | 36295 ft | 423 kts | 21° |
| 2026-04-23 11:23 | 53.20468 | 11.02325 | 36297 ft | 423 kts | 21° |
| 2026-04-23 11:23 | 53.25057 | 11.05105 | 35855 ft | 422 kts | 22° |
| 2026-04-23 11:23 | 53.27821 | 11.06782 | 36045 ft | 423 kts | 22° |
| 2026-04-23 11:24 | 53.31491 | 11.09005 | 36280 ft | 423 kts | 22° |
| 2026-04-23 11:24 | 53.36136 | 11.11831 | 36303 ft | 425 kts | 22° |
| 2026-04-23 11:25 | 53.41691 | 11.15222 | 36309 ft | 424 kts | 22° |
| 2026-04-23 11:25 | 53.47232 | 11.18613 | 36307 ft | 423 kts | 22° |
| 2026-04-23 11:26 | 53.52721 | 11.21988 | 36308 ft | 423 kts | 22° |
| 2026-04-23 11:26 | 53.58272 | 11.25414 | 36301 ft | 422 kts | 21° |
| 2026-04-23 11:27 | 53.63768 | 11.28802 | 36303 ft | 422 kts | 21° |
| 2026-04-23 11:27 | 53.69273 | 11.32200 | 36302 ft | 422 kts | 21° |
| 2026-04-23 11:28 | 53.74826 | 11.35653 | 36300 ft | 422 kts | 21° |
| 2026-04-23 11:28 | 53.80294 | 11.39057 | 36299 ft | 422 kts | 21° |
| 2026-04-23 11:29 | 53.85807 | 11.42487 | 36295 ft | 421 kts | 21° |
| 2026-04-23 11:29 | 53.91306 | 11.45926 | 36292 ft | 421 kts | 21° |
| 2026-04-23 11:30 | 53.96804 | 11.49384 | 36291 ft | 421 kts | 21° |
| 2026-04-23 11:30 | 54.02302 | 11.52852 | 36288 ft | 421 kts | 21° |
| 2026-04-23 11:31 | 54.07813 | 11.56333 | 36154 ft | 422 kts | 21° |
| 2026-04-23 11:31 | 54.10556 | 11.58068 | 35899 ft | 421 kts | 21° |
| 2026-04-23 11:31 | 54.13308 | 11.59807 | 35396 ft | 421 kts | 21° |
| 2026-04-23 11:31 | 54.16021 | 11.61526 | 34657 ft | 424 kts | 21° |
| 2026-04-23 11:32 | 54.18837 | 11.63315 | 33787 ft | 429 kts | 21° |
| 2026-04-23 11:32 | 54.21605 | 11.65075 | 32922 ft | 432 kts | 21° |
| 2026-04-23 11:32 | 54.24422 | 11.66867 | 32064 ft | 434 kts | 21° |
| 2026-04-23 11:32 | 54.27264 | 11.68679 | 31188 ft | 436 kts | 21° |
| 2026-04-23 11:33 | 54.30119 | 11.70503 | 30216 ft | 440 kts | 21° |
| 2026-04-23 11:33 | 54.32995 | 11.72345 | 29163 ft | 442 kts | 21° |
| 2026-04-23 11:33 | 54.35882 | 11.74197 | 28178 ft | 443 kts | 20° |
| 2026-04-23 11:33 | 54.38767 | 11.76051 | 27411 ft | 440 kts | 20° |
| 2026-04-23 11:34 | 54.41620 | 11.77888 | 26786 ft | 435 kts | 20° |
| 2026-04-23 11:34 | 54.44437 | 11.79702 | 26123 ft | 431 kts | 20° |
| 2026-04-23 11:34 | 54.47216 | 11.81609 | 25411 ft | 428 kts | 22° |
| 2026-04-23 11:34 | 54.49936 | 11.83668 | 24728 ft | 425 kts | 24° |
| 2026-04-23 11:35 | 54.52607 | 11.85813 | 24063 ft | 423 kts | 25° |
| 2026-04-23 11:35 | 54.55249 | 11.87985 | 23329 ft | 420 kts | 25° |
| 2026-04-23 11:35 | 54.57875 | 11.90142 | 22692 ft | 414 kts | 25° |
| 2026-04-23 11:35 | 54.60464 | 11.92243 | 22067 ft | 409 kts | 24° |
| 2026-04-23 11:36 | 54.62925 | 11.94618 | 21465 ft | 404 kts | 32° |
| 2026-04-23 11:36 | 54.65255 | 11.97306 | 20894 ft | 399 kts | 32° |
| 2026-04-23 11:36 | 54.67549 | 11.99952 | 20331 ft | 393 kts | 32° |
| 2026-04-23 11:36 | 54.69808 | 12.02555 | 19800 ft | 388 kts | 32° |
| 2026-04-23 11:37 | 54.72044 | 12.05129 | 19280 ft | 383 kts | 32° |
| 2026-04-23 11:37 | 54.74217 | 12.07636 | 18797 ft | 377 kts | 32° |
| 2026-04-23 11:37 | 54.76387 | 12.10142 | 18279 ft | 372 kts | 32° |
| 2026-04-23 11:37 | 54.78526 | 12.12619 | 17795 ft | 366 kts | 32° |
| 2026-04-23 11:38 | 54.80626 | 12.15063 | 17318 ft | 361 kts | 32° |
| 2026-04-23 11:38 | 54.82690 | 12.17470 | 16865 ft | 356 kts | 32° |
| 2026-04-23 11:38 | 54.84733 | 12.19855 | 16408 ft | 351 kts | 32° |
| 2026-04-23 11:38 | 54.86748 | 12.22209 | 15942 ft | 348 kts | 32° |
| 2026-04-23 11:39 | 54.88754 | 12.24550 | 15475 ft | 345 kts | 31° |
| 2026-04-23 11:39 | 54.90911 | 12.26366 | 14643 ft | 350 kts | 15° |
| 2026-04-23 11:39 | 54.93295 | 12.27515 | 13810 ft | 357 kts | 14° |
| 2026-04-23 11:39 | 54.95636 | 12.28604 | 13596 ft | 334 kts | 13° |
| 2026-04-23 11:40 | 54.97783 | 12.29601 | 13414 ft | 304 kts | 13° |
| 2026-04-23 11:40 | 54.99768 | 12.30522 | 12932 ft | 288 kts | 13° |
| 2026-04-23 11:40 | 55.01680 | 12.31406 | 12220 ft | 282 kts | 13° |
| 2026-04-23 11:40 | 55.03560 | 12.32279 | 11467 ft | 278 kts | 12° |
| 2026-04-23 11:41 | 55.05428 | 12.33152 | 10713 ft | 275 kts | 12° |
| 2026-04-23 11:41 | 55.07257 | 12.34011 | 10149 ft | 270 kts | 12° |
| 2026-04-23 11:41 | 55.09070 | 12.34841 | 9970 ft | 268 kts | 9° |
| 2026-04-23 11:41 | 55.10899 | 12.35242 | 9573 ft | 263 kts | 358° |
| 2026-04-23 11:42 | 55.12724 | 12.35204 | 9170 ft | 262 kts | 358° |
| 2026-04-23 11:42 | 55.14540 | 12.35235 | 8772 ft | 260 kts | 359° |
| 2026-04-23 11:42 | 55.16347 | 12.35301 | 8391 ft | 259 kts | 360° |
| 2026-04-23 11:42 | 55.18137 | 12.35374 | 8031 ft | 257 kts | 360° |
| 2026-04-23 11:43 | 55.19919 | 12.35447 | 7653 ft | 255 kts | 360° |
| 2026-04-23 11:43 | 55.21690 | 12.35513 | 7281 ft | 254 kts | 360° |
| 2026-04-23 11:43 | 55.23455 | 12.35574 | 6912 ft | 252 kts | 360° |
| 2026-04-23 11:43 | 55.25206 | 12.35634 | 6582 ft | 251 kts | 0° |
| 2026-04-23 11:44 | 55.26945 | 12.35695 | 6229 ft | 249 kts | 360° |
| 2026-04-23 11:44 | 55.28668 | 12.35753 | 5882 ft | 247 kts | 359° |
| 2026-04-23 11:44 | 55.30346 | 12.35809 | 5525 ft | 245 kts | 359° |
| 2026-04-23 11:44 | 55.32044 | 12.35864 | 5194 ft | 242 kts | 359° |
| 2026-04-23 11:45 | 55.33712 | 12.35916 | 4951 ft | 236 kts | 359° |
| 2026-04-23 11:45 | 55.35335 | 12.35969 | 4676 ft | 232 kts | 359° |
| 2026-04-23 11:45 | 55.36934 | 12.36023 | 4411 ft | 228 kts | 359° |
| 2026-04-23 11:45 | 55.38508 | 12.36074 | 4127 ft | 225 kts | 359° |
| 2026-04-23 11:46 | 55.40065 | 12.36122 | 3844 ft | 222 kts | 359° |
| 2026-04-23 11:46 | 55.41592 | 12.36306 | 3563 ft | 220 kts | 9° |
| 2026-04-23 11:46 | 55.43080 | 12.36963 | 3256 ft | 219 kts | 12° |
| 2026-04-23 11:46 | 55.44502 | 12.37863 | 3052 ft | 216 kts | 28° |
| 2026-04-23 11:47 | 55.45632 | 12.39483 | 3029 ft | 201 kts | 36° |
| 2026-04-23 11:47 | 55.46642 | 12.41033 | 3028 ft | 185 kts | 35° |
| 2026-04-23 11:47 | 55.47562 | 12.42442 | 2995 ft | 170 kts | 35° |
| 2026-04-23 11:47 | 55.48425 | 12.43763 | 2856 ft | 160 kts | 35° |
| 2026-04-23 11:48 | 55.49251 | 12.45026 | 2656 ft | 155 kts | 35° |
| 2026-04-23 11:48 | 55.50065 | 12.46270 | 2456 ft | 155 kts | 35° |
| 2026-04-23 11:48 | 55.50882 | 12.47523 | 2246 ft | 155 kts | 34° |
| 2026-04-23 11:48 | 55.51698 | 12.48774 | 2038 ft | 156 kts | 35° |
| 2026-04-23 11:49 | 55.52514 | 12.50027 | 1819 ft | 156 kts | 35° |
| 2026-04-23 11:49 | 55.53336 | 12.51290 | 1603 ft | 157 kts | 35° |
| 2026-04-23 11:49 | 55.54146 | 12.52538 | 1417 ft | 147 kts | 35° |
| 2026-04-23 11:49 | 55.54891 | 12.53686 | 1196 ft | 139 kts | 34° |
| 2026-04-23 11:50 | 55.55611 | 12.54794 | 1010 ft | 135 kts | 35° |
| 2026-04-23 11:50 | 55.56318 | 12.55880 | 809 ft | 135 kts | 35° |
| 2026-04-23 11:50 | 55.57022 | 12.56964 | 633 ft | 133 kts | 36° |
| 2026-04-23 11:50 | 55.57716 | 12.58042 | 460 ft | 132 kts | 37° |
| 2026-04-23 11:51 | 55.58411 | 12.59106 | 283 ft | 131 kts | 38° |
| 2026-04-23 11:51 | 55.59104 | 12.60162 | 108 ft | 132 kts | 39° |
| 2026-04-23 11:51 | 55.59772 | 12.61205 | 31 ft | 118 kts | 38° |
| 2026-04-23 11:51 | 55.60257 | 12.61957 | 24 ft | 65 kts | 41° |
| 2026-04-23 11:52 | 55.60484 | 12.62302 | 27 ft | 30 kts | 41° |
| 2026-04-23 11:52 | 55.60617 | 12.62509 | 26 ft | 22 kts | 41° |
| 2026-04-23 11:52 | 55.60728 | 12.62678 | 32 ft | 20 kts | 39° |
| 2026-04-23 11:52 | 55.60846 | 12.62801 | 26 ft | 19 kts | 23° |
| 2026-04-23 11:53 | 55.60968 | 12.62868 | 24 ft | 18 kts | 12° |
| 2026-04-23 11:53 | 55.61087 | 12.62910 | 24 ft | 17 kts | 11° |
| 2026-04-23 11:53 | 55.61185 | 12.63012 | 24 ft | 16 kts | 42° |
| 2026-04-23 11:53 | 55.61271 | 12.63144 | 24 ft | 16 kts | 40° |
| 2026-04-23 11:54 | 55.61358 | 12.63275 | 24 ft | 17 kts | 40° |
| 2026-04-23 11:54 | 55.61446 | 12.63411 | 24 ft | 17 kts | 41° |
| 2026-04-23 11:54 | 55.61536 | 12.63550 | 24 ft | 17 kts | 41° |
| 2026-04-23 11:54 | 55.61628 | 12.63692 | 24 ft | 18 kts | 41° |
| 2026-04-23 11:55 | 55.61721 | 12.63836 | 24 ft | 18 kts | 41° |
| 2026-04-23 11:55 | 55.61815 | 12.63982 | 24 ft | 18 kts | 41° |
| 2026-04-23 11:55 | 55.61920 | 12.64108 | 24 ft | 19 kts | 26° |
| 2026-04-23 11:55 | 55.62038 | 12.64207 | 25 ft | 19 kts | 26° |
| 2026-04-23 11:56 | 55.62137 | 12.64292 | 25 ft | 15 kts | 25° |
| 2026-04-23 11:56 | 55.62234 | 12.64379 | 22 ft | 16 kts | 35° |
| 2026-04-23 11:56 | 55.62286 | 12.64544 | 23 ft | 15 kts | 66° |
| 2026-04-23 11:56 | 55.62328 | 12.64712 | 24 ft | 15 kts | 66° |
| 2026-04-23 11:57 | 55.62352 | 12.64854 | 24 ft | 11 kts | 108° |
| 2026-04-23 11:57 | 55.62317 | 12.64965 | 25 ft | 10 kts | 125° |
| 2026-04-23 11:57 | 55.62281 | 12.65066 | 26 ft | 9 kts | 122° |
| 2026-04-23 11:57 | 55.62248 | 12.65161 | 24 ft | 8 kts | 112° |
| 2026-04-23 11:58 | 55.62284 | 12.65234 | 24 ft | 14 kts | 54° |
| 2026-04-23 11:58 | 55.62359 | 12.65328 | 24 ft | 14 kts | 2° |
| 2026-04-23 11:58 | 55.62447 | 12.65326 | 24 ft | 8 kts | 359° |
| 2026-04-23 11:58 | 55.62496 | 12.65324 | 24 ft | 6 kts | 359° |
| 2026-04-23 11:59 | 55.62534 | 12.65323 | 24 ft | 2 kts | 358° |
| 2026-04-23 11:59 | 55.62562 | 12.65322 | 24 ft | 8 kts | 358° |
| 2026-04-23 11:59 | 55.62644 | 12.65300 | 25 ft | 10 kts | 310° |
| 2026-04-23 11:59 | 55.62673 | 12.65247 | 24 ft | 5 kts | 358° |
| 2026-04-23 12:00 | 55.62711 | 12.65247 | 24 ft | 5 kts | 6° |
| 2026-04-23 12:00 | 55.62728 | 12.65250 | 24 ft | 0 kts | 6° |